createdAt,value
2019-03-18T00:00:29.929Z,99901.95
2019-03-18T00:03:03.736Z,99911.22
2019-03-18T00:05:38.484Z,99898.27
2019-03-18T00:08:12.298Z,99902.70
2019-03-18T00:10:45.897Z,99906.62
2019-03-18T00:13:20.281Z,99903.13
2019-03-18T00:15:53.890Z,99906.69
2019-03-18T00:18:29.002Z,99902.78
2019-03-18T00:21:02.649Z,99902.48
2019-03-18T00:23:37.272Z,99908.95
2019-03-18T00:26:10.993Z,99911.52
2019-03-18T00:28:44.979Z,99901.66
2019-03-18T00:31:18.613Z,99902.70
2019-03-18T00:33:52.499Z,99910.85
2019-03-18T00:36:27.417Z,99907.78
2019-03-18T00:39:01.053Z,99915.98
2019-03-18T00:41:36.754Z,99912.91
2019-03-18T00:44:11.546Z,99911.44
2019-03-18T00:46:45.186Z,99909.73
2019-03-18T00:49:18.936Z,99921.88
2019-03-18T00:51:52.755Z,99911.14
2019-03-18T00:54:26.502Z,99916.69
2019-03-18T00:57:00.335Z,99919.92
2019-03-18T00:59:35.279Z,99918.29
2019-03-18T01:02:11.449Z,99917.19
2019-03-18T01:04:46.370Z,99922.96
2019-03-18T01:07:22.400Z,99926.51
2019-03-18T01:09:57.063Z,99925.73
2019-03-18T01:12:30.839Z,99918.29
2019-03-18T01:15:04.667Z,99926.01
2019-03-18T01:17:40.829Z,99936.61
2019-03-18T01:20:15.658Z,99932.14
2019-03-18T01:22:50.695Z,99932.52
2019-03-18T01:25:24.284Z,99923.04
2019-03-18T01:27:58.356Z,99918.47
2019-03-18T01:30:32.155Z,99919.90
2019-03-18T01:33:06.915Z,99924.15
2019-03-18T01:35:41.885Z,99913.44
2019-03-18T01:38:17.449Z,99916.36
2019-03-18T01:40:52.271Z,99914.49
2019-03-18T01:43:26.024Z,99913.11
2019-03-18T01:45:59.997Z,99915.56
2019-03-18T01:48:34.911Z,99912.66
2019-03-18T01:51:08.659Z,99918.63
2019-03-18T01:53:42.489Z,99918.57
2019-03-18T01:56:16.335Z,99918.44
2019-03-18T01:58:50.248Z,99921.78
2019-03-18T02:01:23.936Z,99909.25
2019-03-18T02:03:57.827Z,99909.30
2019-03-18T02:06:31.875Z,99924.27
2019-03-18T02:09:07.261Z,99930.06
2019-03-18T02:11:42.840Z,99919.44
2019-03-18T02:14:16.711Z,99929.98
2019-03-18T02:16:52.535Z,99932.79
2019-03-18T02:19:26.362Z,99931.05
2019-03-18T02:22:01.101Z,99932.79
2019-03-18T02:24:34.886Z,99935.23
2019-03-18T02:27:09.914Z,99936.82
2019-03-18T02:29:45.357Z,99937.48
2019-03-18T02:32:19.332Z,99935.40
2019-03-18T02:34:53.173Z,99934.63
2019-03-18T02:37:26.876Z,99929.56
2019-03-18T02:40:00.652Z,99936.13
2019-03-18T02:42:36.145Z,99946.86
2019-03-18T02:45:11.997Z,99940.53
2019-03-18T02:47:45.801Z,99950.48
2019-03-18T02:50:19.615Z,99943.28
2019-03-18T02:52:53.354Z,99946.14
2019-03-18T02:55:27.222Z,99952.19
2019-03-18T02:58:02.362Z,99944.86
2019-03-18T03:00:36.581Z,99957.59
2019-03-18T03:03:12.218Z,99954.73
2019-03-18T03:05:45.871Z,99956.88
2019-03-18T03:08:23.429Z,99958.16
2019-03-18T03:10:57.241Z,99957.54
2019-03-18T03:13:30.986Z,99964.70
2019-03-18T03:16:04.675Z,99975.84
2019-03-18T03:18:38.349Z,99975.66
2019-03-18T03:21:12.066Z,99978.98
2019-03-18T03:23:45.997Z,99977.19
2019-03-18T03:26:19.696Z,99980.16
2019-03-18T03:28:54.114Z,99982.08
2019-03-18T03:31:27.798Z,99987.86
2019-03-18T03:34:04.593Z,99986.47
2019-03-18T03:36:39.471Z,99990.55
2019-03-18T03:39:13.278Z,99988.98
2019-03-18T03:41:47.533Z,99998.26
2019-03-18T03:44:21.175Z,99992.70
2019-03-18T03:46:54.825Z,100001.41
2019-03-18T03:49:28.577Z,100002.11
2019-03-18T03:52:04.371Z,99998.03
2019-03-18T03:54:40.462Z,99997.74
2019-03-18T03:57:16.113Z,100003.22
2019-03-18T03:59:50.515Z,100006.42
2019-03-18T04:02:24.746Z,100012.48
2019-03-18T04:05:00.797Z,100010.86
2019-03-18T04:07:34.619Z,100009.86
2019-03-18T04:10:08.680Z,100008.88
2019-03-18T04:12:42.843Z,100013.41
2019-03-18T04:15:16.734Z,100006.99
2019-03-18T04:17:50.693Z,100007.59
2019-03-18T04:20:24.482Z,100011.59
2019-03-18T04:22:58.241Z,100006.30
2019-03-18T04:25:32.016Z,100012.27
2019-03-18T04:28:07.004Z,100015.69
2019-03-18T04:30:41.337Z,100017.08
2019-03-18T04:33:15.272Z,100024.41
2019-03-18T04:35:49.094Z,100026.28
2019-03-18T04:38:22.828Z,100024.33
2019-03-18T04:40:57.597Z,100026.09
2019-03-18T04:43:31.634Z,100022.83
2019-03-18T04:46:05.310Z,100027.08
2019-03-18T04:48:39.112Z,100030.29
2019-03-18T04:51:12.747Z,100031.87
2019-03-18T04:53:48.209Z,100033.20
2019-03-18T04:56:21.977Z,100037.70
2019-03-18T04:58:55.619Z,100036.47
2019-03-18T05:01:30.004Z,100032.11
2019-03-18T05:04:04.215Z,100037.52
2019-03-18T05:06:39.770Z,100040.21
2019-03-18T05:09:15.599Z,100042.94
2019-03-18T05:11:49.440Z,100048.84
2019-03-18T05:14:27.343Z,100061.14
2019-03-18T05:17:02.518Z,100053.44
2019-03-18T05:19:39.566Z,100061.20
2019-03-18T05:22:13.648Z,100060.84
2019-03-18T05:24:49.179Z,100061.72
2019-03-18T05:27:23.226Z,100068.44
2019-03-18T05:29:56.864Z,100074.78
2019-03-18T05:32:30.541Z,100074.17
2019-03-18T05:35:04.447Z,100079.97
2019-03-18T05:37:38.511Z,100091.06
2019-03-18T05:40:13.793Z,100096.84
2019-03-18T05:42:49.147Z,100096.60
2019-03-18T05:45:23.032Z,100096.09
2019-03-18T05:47:56.762Z,100093.17
2019-03-18T05:50:30.683Z,100102.09
2019-03-18T05:53:04.321Z,100107.36
2019-03-18T05:55:38.584Z,100108.35
2019-03-18T05:58:12.146Z,100113.33
2019-03-18T06:00:45.753Z,100122.77
2019-03-18T06:03:20.939Z,100122.02
2019-03-18T06:05:57.033Z,100125.64
2019-03-18T06:08:30.716Z,100137.09
2019-03-18T06:11:06.352Z,100139.61
2019-03-18T06:13:40.796Z,100141.13
2019-03-18T06:16:14.686Z,100141.59
2019-03-18T06:18:48.604Z,100140.27
2019-03-18T06:21:22.422Z,100130.92
2019-03-18T06:23:57.849Z,100149.55
2019-03-18T06:26:31.613Z,100162.11
2019-03-18T06:29:05.250Z,100160.23
2019-03-18T06:31:39.480Z,100158.94
2019-03-18T06:34:13.935Z,100167.72
2019-03-18T06:36:47.823Z,100163.78
2019-03-18T06:39:21.757Z,100171.79
2019-03-18T06:41:56.114Z,100181.33
2019-03-18T06:44:33.432Z,100176.79
2019-03-18T06:47:07.194Z,100183.50
2019-03-18T06:49:42.189Z,100196.28
2019-03-18T06:52:19.661Z,100190.50
2019-03-18T06:54:54.422Z,100201.37
2019-03-18T06:57:28.184Z,100196.51
2019-03-18T07:00:03.377Z,100193.82
2019-03-18T07:02:37.144Z,100199.16
2019-03-18T07:05:11.118Z,100212.54
2019-03-18T07:07:46.094Z,100212.19
2019-03-18T07:10:19.847Z,100212.59
2019-03-18T07:12:54.735Z,100219.39
2019-03-18T07:15:28.341Z,100227.50
2019-03-18T07:18:02.497Z,100232.63
2019-03-18T07:20:36.257Z,100231.58
2019-03-18T07:23:10.340Z,100234.04
2019-03-18T07:25:47.037Z,100236.84
2019-03-18T07:28:20.708Z,100241.98
2019-03-18T07:30:56.605Z,100249.77
2019-03-18T07:33:32.174Z,100245.53
2019-03-18T07:36:05.860Z,100244.94
2019-03-18T07:38:40.586Z,100243.13
2019-03-18T07:41:14.423Z,100246.30
2019-03-18T07:43:49.263Z,100253.47
2019-03-18T07:46:23.161Z,100249.43
2019-03-18T07:48:57.023Z,100258.92
2019-03-18T07:51:30.748Z,100250.30
2019-03-18T07:54:04.574Z,100253.51
2019-03-18T07:56:39.425Z,100257.85
2019-03-18T07:59:13.174Z,100264.92
2019-03-18T08:01:46.844Z,100262.32
2019-03-18T08:04:20.509Z,100269.23
2019-03-18T08:06:55.578Z,100271.23
2019-03-18T08:09:30.991Z,100269.66
2019-03-18T08:12:23.403Z,100287.23
2019-03-18T08:14:58.973Z,100286.06
2019-03-18T08:17:34.517Z,100284.83
2019-03-18T08:20:09.857Z,100286.95
2019-03-18T08:22:43.503Z,100289.88
2019-03-18T08:25:17.373Z,100290.23
2019-03-18T08:27:51.124Z,100292.78
2019-03-18T08:30:24.889Z,100286.29
2019-03-18T08:32:59.930Z,100297.99
2019-03-18T08:35:33.878Z,100316.86
2019-03-18T08:38:07.802Z,100307.24
2019-03-18T08:40:43.393Z,100309.69
2019-03-18T08:43:17.440Z,100309.80
2019-03-18T08:45:51.361Z,100311.05
2019-03-18T08:48:25.359Z,100317.55
2019-03-18T08:51:00.123Z,100313.23
2019-03-18T08:53:33.929Z,100310.84
2019-03-18T08:56:08.799Z,100326.28
2019-03-18T08:58:44.140Z,100329.30
2019-03-18T09:01:17.948Z,100327.41
2019-03-18T09:03:54.618Z,100335.20
2019-03-18T09:06:30.424Z,100347.70
2019-03-18T09:09:05.202Z,100355.23
2019-03-18T09:11:39.118Z,100362.31
2019-03-18T09:14:12.712Z,100358.52
2019-03-18T09:16:47.710Z,100358.68
2019-03-18T09:19:22.584Z,100367.92
2019-03-18T09:21:56.386Z,100367.14
2019-03-18T09:24:30.243Z,100373.02
2019-03-18T09:27:05.803Z,100371.33
2019-03-18T09:29:39.862Z,100373.35
2019-03-18T09:32:13.515Z,100368.70
2019-03-18T09:34:47.172Z,100372.70
2019-03-18T09:37:22.858Z,100359.02
2019-03-18T09:39:56.564Z,100360.80
2019-03-18T09:42:30.386Z,100368.25
2019-03-18T09:45:06.505Z,100367.80
2019-03-18T09:47:40.590Z,100372.58
2019-03-18T09:50:15.430Z,100370.70
2019-03-18T09:52:49.223Z,100363.12
2019-03-18T09:55:22.999Z,100371.52
2019-03-18T09:57:57.180Z,100370.69
2019-03-18T10:00:32.203Z,100380.97
2019-03-18T10:03:05.928Z,100378.16
2019-03-18T10:05:43.956Z,100381.24
2019-03-18T10:08:18.996Z,100387.13
2019-03-18T10:10:53.008Z,100394.38
2019-03-18T10:13:28.215Z,100392.01
2019-03-18T10:16:03.148Z,100402.31
2019-03-18T10:18:37.248Z,100410.59
2019-03-18T10:21:13.214Z,100397.75
2019-03-18T10:23:48.351Z,100405.11
2019-03-18T10:26:23.381Z,100407.74
2019-03-18T10:28:58.932Z,100396.19
2019-03-18T10:31:33.595Z,100394.18
2019-03-18T10:34:09.415Z,100410.90
2019-03-18T10:36:45.148Z,100411.17
2019-03-18T10:39:18.956Z,100413.77
2019-03-18T10:41:53.994Z,100424.08
2019-03-18T10:44:29.251Z,100427.22
2019-03-18T10:47:03.175Z,100429.39
2019-03-18T10:49:46.100Z,100432.08
2019-03-18T10:52:14.390Z,100435.47
2019-03-18T10:54:49.703Z,100450.27
2019-03-18T10:57:23.511Z,100458.02
2019-03-18T11:00:01.112Z,100483.81
2019-03-18T11:02:34.927Z,100533.98
2019-03-18T11:05:09.983Z,100548.20
2019-03-18T11:07:46.418Z,100548.84
2019-03-18T11:10:20.254Z,100533.97
2019-03-18T11:12:55.804Z,100503.74
2019-03-18T11:15:29.619Z,100506.00
2019-03-18T11:18:03.388Z,100514.34
2019-03-18T11:20:37.054Z,100512.13
2019-03-18T11:23:10.688Z,100517.48
2019-03-18T11:25:45.425Z,100513.77
2019-03-18T11:28:19.646Z,100514.83
2019-03-18T11:30:53.386Z,100510.08
2019-03-18T11:33:28.565Z,100517.61
2019-03-18T11:36:03.511Z,100518.79
2019-03-18T11:38:39.158Z,100516.74
2019-03-18T11:41:13.417Z,100511.59
2019-03-18T11:43:47.088Z,100507.53
2019-03-18T11:46:22.966Z,100512.23
2019-03-18T11:48:56.961Z,100503.45
2019-03-18T11:51:31.216Z,100506.54
2019-03-18T11:54:08.795Z,100499.41
2019-03-18T11:56:42.663Z,100501.73
2019-03-18T11:59:16.295Z,100499.62
2019-03-18T12:01:50.161Z,100506.76
2019-03-18T12:04:23.934Z,100498.73
2019-03-18T12:06:57.865Z,100496.26
2019-03-18T12:09:31.515Z,100508.68
2019-03-18T12:12:05.456Z,100504.02
2019-03-18T12:14:39.151Z,100500.02
2019-03-18T12:17:14.569Z,100493.77
2019-03-18T12:19:49.724Z,100491.28
2019-03-18T12:22:23.938Z,100486.28
2019-03-18T12:24:57.663Z,100485.42
2019-03-18T12:27:31.327Z,100485.81
2019-03-18T12:30:06.061Z,100493.65
2019-03-18T12:32:41.755Z,100505.95
2019-03-18T12:35:15.844Z,100491.95
2019-03-18T12:37:51.666Z,100494.44
2019-03-18T12:40:27.163Z,100487.89
2019-03-18T12:43:03.129Z,100509.67
2019-03-18T12:45:36.930Z,100509.81
2019-03-18T12:48:11.891Z,100499.09
2019-03-18T12:50:55.791Z,100505.19
2019-03-18T12:53:21.256Z,100504.81
2019-03-18T12:55:54.978Z,100486.74
2019-03-18T12:58:30.729Z,100501.68
2019-03-18T13:01:12.501Z,100491.86
2019-03-18T13:03:40.983Z,100506.09
2019-03-18T13:06:18.523Z,100509.39
2019-03-18T13:08:52.621Z,100514.25
2019-03-18T13:11:27.736Z,100516.69
2019-03-18T13:14:02.601Z,100516.34
2019-03-18T13:16:36.578Z,100521.31
2019-03-18T13:19:11.600Z,100548.66
2019-03-18T13:21:45.362Z,100566.69
2019-03-18T13:24:19.276Z,100576.44
2019-03-18T13:26:52.964Z,100629.86
2019-03-18T13:29:28.628Z,100624.03
2019-03-18T13:32:04.378Z,100592.03
2019-03-18T13:34:40.212Z,100587.70
2019-03-18T13:37:15.064Z,100586.45
2019-03-18T13:39:49.996Z,100580.91
2019-03-18T13:42:25.139Z,100584.69
2019-03-18T13:44:59.027Z,100580.41
2019-03-18T13:47:33.319Z,100583.88
2019-03-18T13:50:09.427Z,100590.56
2019-03-18T13:52:43.334Z,100594.96
2019-03-18T13:55:19.105Z,100605.27
2019-03-18T13:57:52.793Z,100600.32
2019-03-18T14:00:26.498Z,100599.46
2019-03-18T14:03:00.548Z,100599.59
2019-03-18T14:05:34.261Z,100599.12
2019-03-18T14:08:07.922Z,100597.61
2019-03-18T14:10:41.982Z,100598.80
2019-03-18T14:13:16.159Z,100595.11
2019-03-18T14:15:51.172Z,100592.08
2019-03-18T14:18:26.652Z,100591.23
2019-03-18T14:21:02.189Z,100603.89
2019-03-18T14:23:37.767Z,100601.34
2019-03-18T14:26:11.488Z,100608.10
2019-03-18T14:28:45.445Z,100607.13
2019-03-18T14:31:19.452Z,100610.39
2019-03-18T14:33:53.135Z,100614.13
2019-03-18T14:36:27.385Z,100604.61
2019-03-18T14:39:04.638Z,100605.98
2019-03-18T14:41:38.372Z,100604.03
2019-03-18T14:44:12.383Z,100607.92
2019-03-18T14:46:46.471Z,100617.47
2019-03-18T14:49:20.171Z,100626.60
2019-03-18T14:51:55.449Z,100627.59
2019-03-18T14:54:29.150Z,100632.36
2019-03-18T14:57:02.819Z,100626.59
2019-03-18T14:59:37.274Z,100629.91
2019-03-18T15:02:12.312Z,100641.03
2019-03-18T15:04:45.946Z,100642.52
2019-03-18T15:07:22.184Z,100714.89
2019-03-18T15:09:56.270Z,100728.20
2019-03-18T15:12:30.175Z,100742.07
2019-03-18T15:15:07.553Z,100739.70
2019-03-18T15:17:41.382Z,100725.11
2019-03-18T15:20:15.489Z,100716.11
2019-03-18T15:22:50.185Z,100717.52
2019-03-18T15:25:24.300Z,100726.05
2019-03-18T15:27:59.359Z,100725.13
2019-03-18T15:30:35.284Z,100725.67
2019-03-18T15:33:09.055Z,100729.85
2019-03-18T15:35:42.820Z,100730.82
2019-03-18T15:38:19.993Z,100738.77
2019-03-18T15:40:54.690Z,100738.20
2019-03-18T15:43:28.379Z,100743.70
2019-03-18T15:46:02.296Z,100745.28
2019-03-18T15:48:36.234Z,100746.09
2019-03-18T15:51:13.595Z,100745.33
2019-03-18T15:53:47.309Z,100752.22
2019-03-18T15:56:22.137Z,100750.36
2019-03-18T15:58:55.748Z,100748.97
2019-03-18T16:01:31.794Z,100752.01
2019-03-18T16:04:08.984Z,100754.11
2019-03-18T16:06:43.806Z,100762.47
2019-03-18T16:09:17.704Z,100774.54
2019-03-18T16:11:51.549Z,100773.86
2019-03-18T16:14:25.830Z,100776.44
2019-03-18T16:17:02.388Z,100788.77
2019-03-18T16:19:36.421Z,100798.55
2019-03-18T16:22:22.708Z,100807.97
2019-03-18T16:24:45.919Z,100808.34
2019-03-18T16:27:21.046Z,100806.18
2019-03-18T16:29:54.738Z,100819.28
2019-03-18T16:32:28.440Z,100820.97
2019-03-18T16:35:03.537Z,100819.47
2019-03-18T16:37:39.861Z,100822.47
2019-03-18T16:40:14.128Z,100820.50
2019-03-18T16:42:48.082Z,100820.28
2019-03-18T16:45:21.832Z,100819.66
2019-03-18T16:47:57.550Z,100827.56
2019-03-18T16:50:32.772Z,100829.42
2019-03-18T16:53:11.306Z,100825.97
2019-03-18T16:55:45.504Z,100832.66
2019-03-18T16:58:20.572Z,100835.52
2019-03-18T17:00:54.836Z,100835.45
2019-03-18T17:03:30.611Z,100837.95
2019-03-18T17:06:04.370Z,100844.15
2019-03-18T17:08:38.176Z,100850.58
2019-03-18T17:11:13.821Z,100854.31
2019-03-18T17:13:47.975Z,100855.02
2019-03-18T17:16:21.564Z,100857.02
2019-03-18T17:18:56.427Z,100859.35
2019-03-18T17:21:31.988Z,100865.00
2019-03-18T17:24:07.543Z,100861.92
2019-03-18T17:26:42.676Z,100870.11
2019-03-18T17:29:16.470Z,100873.84
2019-03-18T17:31:50.276Z,100882.27
2019-03-18T17:34:24.304Z,100885.30
2019-03-18T17:36:57.907Z,100887.89
2019-03-18T17:39:32.725Z,100903.52
2019-03-18T17:42:07.560Z,100902.08
2019-03-18T17:44:41.674Z,100914.52
2019-03-18T17:47:16.421Z,100912.89
2019-03-18T17:49:50.272Z,100924.38
2019-03-18T17:52:23.957Z,100920.22
2019-03-18T17:54:57.746Z,100925.53
2019-03-18T17:57:31.451Z,100931.51
2019-03-18T18:00:05.797Z,100938.91
2019-03-18T18:02:39.654Z,100943.98
2019-03-18T18:05:13.986Z,100952.20
2019-03-18T18:07:48.282Z,100952.31
2019-03-18T18:10:22.878Z,100959.08
2019-03-18T18:12:56.525Z,100962.97
2019-03-18T18:15:31.389Z,100962.97
2019-03-18T18:18:07.142Z,100965.78
2019-03-18T18:20:41.061Z,100972.55
2019-03-18T18:23:15.264Z,100975.11
2019-03-18T18:25:51.499Z,100984.01
2019-03-18T18:28:28.339Z,100988.56
2019-03-18T18:31:01.566Z,100994.70
2019-03-18T18:33:36.106Z,101000.33
2019-03-18T18:36:10.007Z,101003.11
2019-03-18T18:38:45.503Z,101009.19
2019-03-18T18:41:19.372Z,101015.19
2019-03-18T18:43:53.142Z,101017.34
2019-03-18T18:46:26.834Z,101017.09
2019-03-18T18:49:00.962Z,101020.20
2019-03-18T18:51:34.973Z,101018.59
2019-03-18T18:54:10.728Z,101029.94
2019-03-18T18:56:45.039Z,101034.42
2019-03-18T18:59:18.998Z,101040.63
2019-03-18T19:01:54.121Z,101047.02
2019-03-18T19:04:27.790Z,101039.49
2019-03-18T19:07:03.485Z,101040.36
2019-03-18T19:09:37.708Z,101045.48
2019-03-18T19:12:12.126Z,101043.06
2019-03-18T19:14:46.689Z,101046.63
2019-03-18T19:17:20.691Z,101053.98
2019-03-18T19:19:54.280Z,101058.55
2019-03-18T19:22:28.535Z,101056.31
2019-03-18T19:25:02.170Z,101056.31
2019-03-18T19:27:36.535Z,101074.89
2019-03-18T19:30:15.039Z,101078.30
2019-03-18T19:32:49.396Z,101083.35
2019-03-18T19:35:24.981Z,101077.30
2019-03-18T19:38:02.302Z,101082.86
2019-03-18T19:40:37.519Z,101082.11
2019-03-18T19:43:11.461Z,101087.39
2019-03-18T19:45:46.177Z,101088.95
2019-03-18T19:48:20.477Z,101091.47
2019-03-18T19:50:54.241Z,101098.19
2019-03-18T19:53:29.221Z,101093.97
2019-03-18T19:56:02.980Z,101103.16
2019-03-18T19:58:37.192Z,101108.47
2019-03-18T20:01:11.151Z,101112.98
2019-03-18T20:03:46.180Z,101116.50
2019-03-18T20:06:19.797Z,101121.11
2019-03-18T20:08:55.863Z,101126.43
2019-03-18T20:11:30.396Z,101128.11
2019-03-18T20:14:05.509Z,101135.44
2019-03-18T20:16:39.560Z,101139.91
2019-03-18T20:19:13.603Z,101147.27
2019-03-18T20:21:47.584Z,101145.05
2019-03-18T20:24:22.320Z,101150.17
2019-03-18T20:26:58.654Z,101152.66
2019-03-18T20:29:32.693Z,101156.27
2019-03-18T20:32:06.537Z,101156.57
2019-03-18T20:34:42.169Z,101164.33
2019-03-18T20:37:16.568Z,101163.48
2019-03-18T20:39:50.947Z,101157.86
2019-03-18T20:42:25.116Z,101168.75
2019-03-18T20:44:59.517Z,101169.99
2019-03-18T20:47:34.514Z,101170.56
2019-03-18T20:50:10.666Z,101176.54
2019-03-18T20:52:45.044Z,101173.86
2019-03-18T20:55:19.217Z,101177.31
2019-03-18T20:57:55.489Z,101187.48
2019-03-18T21:00:30.546Z,101184.81
2019-03-18T21:03:04.606Z,101189.66
2019-03-18T21:05:40.533Z,101195.02
2019-03-18T21:08:15.497Z,101204.77
2019-03-18T21:10:50.731Z,101204.23
2019-03-18T21:13:27.047Z,101202.84
2019-03-18T21:16:00.755Z,101213.69
2019-03-18T21:18:34.629Z,101222.72
2019-03-18T21:21:08.315Z,101227.88
2019-03-18T21:23:42.315Z,101229.49
2019-03-18T21:26:16.529Z,101221.09
2019-03-18T21:28:50.197Z,101232.77
2019-03-18T21:31:24.283Z,101229.70
2019-03-18T21:33:58.052Z,101232.77
2019-03-18T21:36:37.755Z,101243.98
2019-03-18T21:39:10.639Z,101242.11
2019-03-18T21:41:44.908Z,101241.37
2019-03-18T21:44:18.701Z,101248.27
2019-03-18T21:46:52.865Z,101256.09
2019-03-18T21:49:27.610Z,101257.91
2019-03-18T21:52:01.522Z,101256.61
2019-03-18T21:54:35.380Z,101259.25
2019-03-18T21:57:09.082Z,101263.68
2019-03-18T21:59:42.841Z,101260.51
2019-03-18T22:02:16.517Z,101257.95
2019-03-18T22:04:50.253Z,101261.54
2019-03-18T22:07:25.111Z,101250.90
2019-03-18T22:10:00.056Z,101258.18
2019-03-18T22:12:35.871Z,101257.81
2019-03-18T22:15:11.298Z,101263.53
2019-03-18T22:17:45.970Z,101270.33
2019-03-18T22:20:19.731Z,101272.89
2019-03-18T22:22:55.445Z,101273.80
2019-03-18T22:25:30.642Z,101274.69
2019-03-18T22:28:05.627Z,101274.61
2019-03-18T22:30:39.641Z,101273.87
2019-03-18T22:33:13.741Z,101273.11
2019-03-18T22:35:48.072Z,101271.72
2019-03-18T22:38:24.722Z,101271.70
2019-03-18T22:41:00.232Z,101276.89
2019-03-18T22:43:34.559Z,101283.72
2019-03-18T22:46:10.123Z,101291.84
2019-03-18T22:48:45.014Z,101285.37
2019-03-18T22:51:20.798Z,101292.97
2019-03-18T22:53:54.775Z,101293.82
2019-03-18T22:56:29.878Z,101292.11
2019-03-18T22:59:05.191Z,101294.37
2019-03-18T23:01:42.170Z,101289.19
2019-03-18T23:04:16.077Z,101290.87
2019-03-18T23:06:50.131Z,101287.52
2019-03-18T23:09:23.904Z,101290.97
2019-03-18T23:12:00.880Z,101298.79
2019-03-18T23:14:34.609Z,101308.64
2019-03-18T23:17:10.080Z,101302.23
2019-03-18T23:19:44.864Z,101303.93
2019-03-18T23:22:20.409Z,101306.93
2019-03-18T23:24:54.104Z,101314.64
2019-03-18T23:27:27.876Z,101305.22
2019-03-18T23:30:01.592Z,101305.62
2019-03-18T23:32:35.539Z,101313.25
2019-03-18T23:35:09.687Z,101319.18
2019-03-18T23:37:45.199Z,101323.00
2019-03-18T23:40:18.905Z,101323.37
2019-03-18T23:42:54.457Z,101317.46
2019-03-18T23:45:28.322Z,101312.30
2019-03-18T23:48:03.301Z,101322.21
2019-03-18T23:50:38.435Z,101323.55
2019-03-18T23:53:13.409Z,101324.36
2019-03-18T23:55:47.281Z,101337.28
2019-03-18T23:58:21.440Z,101339.41
